Time;durP1;ratioP1;P1;durP2;ratioP2;P2;SDS_P1;SDS_P2;PMS_P1;PMS_P2;Temp;Humidity;BMP_temperature;BMP_pressure;BME280_temperature;BME280_humidity;BME280_pressure;Samples;Min_cycle;Max_cycle;Signal;HPM_P1;HPM_P2
2022/08/21 00:01:55;;;;;;;7.70;3.80;;;;;;;23.83;58.44;99999.20;104051;1284;110199;-85
2022/08/21 00:04:23;;;;;;;7.40;3.80;;;;;;;23.78;58.39;99996.93;104316;1284;140308;-85
2022/08/21 00:06:58;;;;;;;8.50;3.80;;;;;;;23.79;58.68;100000.99;104311;1284;108709;-84
2022/08/21 00:09:26;;;;;;;8.10;3.90;;;;;;;23.78;58.87;100005.61;104297;1284;95658;-85
2022/08/21 00:11:54;;;;;;;7.00;3.80;;;;;;;23.69;58.83;100003.13;104148;1284;140925;-85
2022/08/21 00:14:22;;;;;;;7.50;4.00;;;;;;;23.64;59.00;100010.13;104019;1284;106815;-85
2022/08/21 00:16:50;;;;;;;6.70;3.90;;;;;;;23.64;59.03;100013.84;104006;1284;140108;-84
2022/08/21 00:19:19;;;;;;;7.80;3.90;;;;;;;23.64;59.15;100011.15;103993;1284;109949;-85
2022/08/21 00:21:48;;;;;;;7.00;4.30;;;;;;;23.63;59.11;100010.54;103959;1284;139539;-85
2022/08/21 00:24:16;;;;;;;9.20;3.80;;;;;;;23.55;59.34;100010.83;104063;1284;95308;-85
2022/08/21 00:26:44;;;;;;;8.50;3.90;;;;;;;23.52;59.69;100007.34;104116;1283;110465;-85
2022/08/21 00:29:12;;;;;;;7.20;4.20;;;;;;;23.49;59.70;100002.52;103956;1283;138609;-85
2022/08/21 00:31:41;;;;;;;7.90;3.90;;;;;;;23.43;59.83;100000.09;104251;1284;109326;-85
2022/08/21 00:34:11;;;;;;;6.30;4.00;;;;;;;23.37;60.18;100000.27;103931;1284;140788;-85
2022/08/21 00:36:39;;;;;;;8.10;3.90;;;;;;;23.35;60.36;100000.94;104189;1284;95473;-84
2022/08/21 00:39:08;;;;;;;7.50;3.90;;;;;;;23.32;60.40;99996.30;104199;1283;109934;-84
2022/08/21 00:41:38;;;;;;;7.80;3.80;;;;;;;23.23;60.64;99990.06;104056;1283;140581;-84
2022/08/21 00:44:09;;;;;;;7.20;4.10;;;;;;;23.18;60.66;99985.05;104304;1284;108925;-85
2022/08/21 00:46:38;;;;;;;7.50;4.00;;;;;;;23.16;60.77;99986.31;104072;1284;139292;-84
2022/08/21 00:49:07;;;;;;;7.90;4.60;;;;;;;23.14;60.93;99981.41;104239;1284;95789;-86
2022/08/21 00:51:40;;;;;;;6.50;3.60;;;;;;;23.12;61.17;99980.46;104398;1284;110130;-85
2022/08/21 00:54:10;;;;;;;8.10;4.10;;;;;;;23.08;61.27;99975.77;104188;1284;98696;-85
2022/08/21 00:56:56;;;;;;;9.00;4.40;;;;;;;23.04;61.28;99979.14;104085;1284;109470;-85
2022/08/21 00:59:32;;;;;;;8.20;4.30;;;;;;;23.09;61.12;99977.98;103938;1283;139803;-86
2022/08/21 01:02:00;;;;;;;7.30;3.60;;;;;;;23.14;60.95;99981.42;104284;1284;95309;-87
2022/08/21 01:04:28;;;;;;;7.10;4.10;;;;;;;23.15;61.08;99978.58;103930;1284;139504;-87
2022/08/21 01:06:59;;;;;;;7.70;3.90;;;;;;;23.12;61.16;99977.06;104196;1283;98063;-85
2022/08/21 01:09:30;;;;;;;7.10;3.70;;;;;;;23.08;61.33;99969.54;104114;1284;108484;-85
2022/08/21 01:11:58;;;;;;;6.40;3.80;;;;;;;23.06;61.56;99965.55;104130;1284;140003;-85
2022/08/21 01:14:28;;;;;;;7.70;3.90;;;;;;;23.05;61.50;99962.40;104264;1284;95258;-84
2022/08/21 01:16:58;;;;;;;7.10;4.30;;;;;;;23.04;61.55;99968.96;104184;1282;139472;-84
2022/08/21 01:19:27;;;;;;;6.70;4.00;;;;;;;23.03;61.40;99972.52;104379;1283;98379;-84
2022/08/21 01:21:56;;;;;;;7.20;4.00;;;;;;;23.03;61.35;99969.24;104100;1284;139967;-84
2022/08/21 01:24:23;;;;;;;6.70;3.70;;;;;;;23.01;61.33;99967.46;103997;1284;95264;-83
2022/08/21 01:26:52;;;;;;;6.90;3.50;;;;;;;22.98;61.66;99973.71;104132;1284;95137;-84
2022/08/21 01:29:35;;;;;;;6.10;3.80;;;;;;;22.93;61.84;99971.40;104050;1284;138580;-84
2022/08/21 01:32:09;;;;;;;7.70;3.90;;;;;;;22.99;61.50;99973.04;104280;1284;98792;-85
2022/08/21 01:34:39;;;;;;;6.50;4.00;;;;;;;22.99;61.55;99974.64;104406;1283;138419;-82
2022/08/21 01:37:08;;;;;;;7.40;4.10;;;;;;;23.00;61.44;99970.96;104979;1284;95573;-83
2022/08/21 01:39:36;;;;;;;7.20;3.90;;;;;;;23.07;61.40;99971.61;104983;1284;93816;-83
2022/08/21 01:42:05;;;;;;;6.90;3.80;;;;;;;23.11;61.23;99965.36;104972;1284;109887;-83
2022/08/21 01:44:35;;;;;;;7.10;3.90;;;;;;;23.10;61.56;99960.20;104943;1284;99220;-82
2022/08/21 01:47:07;;;;;;;6.70;3.90;;;;;;;23.04;61.47;99957.21;104928;1284;139066;-84
2022/08/21 01:49:36;;;;;;;7.30;3.90;;;;;;;22.99;61.77;99951.37;104668;1284;95241;-82
2022/08/21 01:52:05;;;;;;;6.30;3.90;;;;;;;22.96;61.82;99950.34;104295;1285;140225;-82
2022/08/21 01:54:37;;;;;;;6.20;3.70;;;;;;;22.92;61.78;99948.80;104136;1284;110197;-85
2022/08/21 01:57:05;;;;;;;7.50;4.10;;;;;;;22.89;61.98;99944.58;105477;1284;100118;-83
2022/08/21 01:59:33;;;;;;;7.50;4.20;;;;;;;22.84;62.01;99940.63;105860;1283;137460;-83
2022/08/21 02:02:01;;;;;;;8.40;3.90;;;;;;;22.72;62.29;99940.42;104564;1284;95273;-85
2022/08/21 02:04:32;;;;;;;6.80;3.70;;;;;;;22.64;62.72;99937.86;103808;1285;141115;-84
2022/08/21 02:07:01;;;;;;;7.70;4.00;;;;;;;22.59;62.92;99936.45;104280;1284;109444;-83
2022/08/21 02:09:29;;;;;;;7.00;3.90;;;;;;;22.54;62.91;99937.52;104236;1284;100156;-81
2022/08/21 02:11:58;;;;;;;7.00;3.80;;;;;;;22.48;62.99;99938.21;105168;1284;138287;-82
2022/08/21 02:14:26;;;;;;;8.60;3.90;;;;;;;22.46;63.23;99941.67;105364;1284;95239;-82
2022/08/21 02:17:00;;;;;;;7.30;3.80;;;;;;;22.45;63.47;99936.89;104410;1284;138840;-83
2022/08/21 02:19:37;;;;;;;6.90;3.80;;;;;;;22.40;63.39;99936.91;104146;1284;110471;-83
2022/08/21 02:22:09;;;;;;;7.60;4.00;;;;;;;22.41;63.65;99930.71;103990;1284;140073;-84
2022/08/21 02:24:37;;;;;;;6.80;3.90;;;;;;;22.35;63.68;99929.52;103998;1284;109969;-84
2022/08/21 02:27:23;;;;;;;6.30;3.70;;;;;;;22.34;63.62;99922.52;104092;1284;95149;-83
2022/08/21 02:29:56;;;;;;;6.10;3.80;;;;;;;22.40;63.49;99923.54;103982;1285;141100;-84
2022/08/21 02:32:25;;;;;;;6.70;3.80;;;;;;;22.44;63.40;99927.16;104159;1283;108703;-84
2022/08/21 02:34:53;;;;;;;6.70;4.00;;;;;;;22.40;63.34;99926.41;103925;1284;138915;-84
2022/08/21 02:37:22;;;;;;;7.70;4.10;;;;;;;22.38;63.48;99926.95;104106;1284;109167;-84
2022/08/21 02:39:50;;;;;;;7.70;4.00;;;;;;;22.32;63.71;99923.24;104385;1284;140400;-84
2022/08/21 02:42:18;;;;;;;7.50;3.70;;;;;;;22.24;63.77;99918.47;104107;1284;95194;-84
2022/08/21 02:44:46;;;;;;;7.30;3.90;;;;;;;22.19;63.99;99917.08;104057;1284;108709;-85
2022/08/21 02:47:14;;;;;;;8.00;4.00;;;;;;;22.15;64.30;99918.69;104006;1285;140064;-84
2022/08/21 02:49:42;;;;;;;8.30;3.70;;;;;;;22.13;64.17;99917.93;104001;1284;109384;-84
2022/08/21 02:52:11;;;;;;;6.60;3.90;;;;;;;22.15;64.33;99918.72;103742;1284;139215;-84
2022/08/21 02:54:39;;;;;;;6.40;3.80;;;;;;;22.10;64.20;99914.38;103986;1284;95355;-85
2022/08/21 02:57:08;;;;;;;7.00;3.90;;;;;;;22.10;64.20;99910.65;104062;1284;109724;-85
2022/08/21 02:59:35;;;;;;;8.50;3.70;;;;;;;22.01;64.54;99904.68;104019;1284;140104;-84
2022/08/21 03:02:03;;;;;;;7.60;3.90;;;;;;;22.00;64.39;99905.27;104059;1284;109397;-85
2022/08/21 03:04:31;;;;;;;6.90;3.80;;;;;;;22.00;64.45;99905.48;104258;1284;138751;-84
2022/08/21 03:07:00;;;;;;;6.80;3.90;;;;;;;22.01;64.46;99902.32;104848;1284;95242;-82
2022/08/21 03:09:28;;;;;;;6.20;3.90;;;;;;;22.01;64.48;99901.92;104603;1284;110763;-84
2022/08/21 03:11:55;;;;;;;7.20;3.80;;;;;;;21.98;64.40;99904.86;104172;1283;140844;-84
2022/08/21 03:14:23;;;;;;;8.00;4.00;;;;;;;21.96;64.62;99900.23;104018;1284;109735;-84
2022/08/21 03:16:51;;;;;;;6.40;4.10;;;;;;;21.89;64.64;99897.13;104006;1283;140620;-83
2022/08/21 03:19:20;;;;;;;7.90;4.20;;;;;;;21.85;64.82;99892.57;104151;1284;95799;-83
2022/08/21 03:21:48;;;;;;;6.60;4.00;;;;;;;21.79;65.07;99899.70;104085;1285;140456;-84
2022/08/21 03:24:16;;;;;;;8.80;3.80;;;;;;;21.77;65.05;99898.81;104055;1283;100285;-85
2022/08/21 03:26:48;;;;;;;7.00;4.20;;;;;;;21.80;65.12;99904.22;104245;1284;109432;-84
2022/08/21 03:29:16;;;;;;;7.00;3.80;;;;;;;21.78;65.18;99905.30;104084;1284;138921;-85
2022/08/21 03:31:44;;;;;;;6.50;3.90;;;;;;;21.78;65.33;99896.23;104219;1284;95215;-86
2022/08/21 03:34:12;;;;;;;6.40;3.60;;;;;;;21.76;65.18;99897.15;104129;1284;140017;-85
2022/08/21 03:36:40;;;;;;;7.80;3.70;;;;;;;21.75;65.32;99893.08;104233;1284;100783;-86
2022/08/21 03:39:08;;;;;;;7.00;4.00;;;;;;;21.73;65.26;99890.52;104184;1284;107468;-84
2022/08/21 03:41:36;;;;;;;6.60;4.00;;;;;;;21.73;65.34;99892.26;104117;1284;140035;-85
2022/08/21 03:44:04;;;;;;;7.80;4.10;;;;;;;21.73;65.32;99894.69;104177;1284;95769;-84
2022/08/21 03:46:32;;;;;;;7.00;4.00;;;;;;;21.69;65.40;99899.66;104186;1284;141818;-84
2022/08/21 03:49:00;;;;;;;5.90;3.60;;;;;;;21.68;65.77;99903.49;104302;1284;97088;-85
2022/08/21 03:51:28;;;;;;;6.20;3.80;;;;;;;21.68;65.47;99903.89;104214;1284;108472;-85
2022/08/21 03:53:56;;;;;;;7.60;3.90;;;;;;;21.66;65.82;99905.15;104096;1284;139370;-85
2022/08/21 03:56:24;;;;;;;6.10;3.70;;;;;;;21.67;65.80;99909.73;104234;1284;95679;-85
2022/08/21 03:58:51;;;;;;;6.90;3.90;;;;;;;21.69;65.87;99908.85;104099;1284;139627;-84
2022/08/21 04:01:19;;;;;;;7.90;3.90;;;;;;;21.73;65.65;99906.05;104195;1284;98261;-84
2022/08/21 04:03:47;;;;;;;6.80;4.10;;;;;;;21.80;65.60;99906.88;104030;1284;138923;-83
2022/08/21 04:06:15;;;;;;;7.30;4.20;;;;;;;21.84;65.31;99913.22;104154;1284;95259;-84
2022/08/21 04:08:43;;;;;;;6.60;3.80;;;;;;;21.91;65.17;99910.14;104179;1284;95176;-84
2022/08/21 04:11:11;;;;;;;7.20;3.90;;;;;;;22.01;65.11;99907.70;103991;1284;141255;-84
2022/08/21 04:13:40;;;;;;;8.10;3.90;;;;;;;22.11;64.88;99910.89;104252;1284;99969;-85
2022/08/21 04:16:12;;;;;;;7.40;4.10;;;;;;;22.12;64.73;99906.64;104090;1284;140176;-85
2022/08/21 04:18:42;;;;;;;8.40;4.20;;;;;;;22.10;64.93;99906.48;104196;1284;95790;-84
2022/08/21 04:21:11;;;;;;;8.00;3.80;;;;;;;22.14;64.74;99905.77;104296;1284;95714;-84
2022/08/21 04:23:40;;;;;;;6.40;3.70;;;;;;;22.20;64.69;99911.20;104151;1283;139487;-84
2022/08/21 04:26:09;;;;;;;7.00;3.90;;;;;;;22.23;64.61;99909.04;104307;1284;96725;-83
2022/08/21 04:28:37;;;;;;;7.10;4.10;;;;;;;22.17;64.81;99908.02;104223;1283;139303;-83
2022/08/21 04:31:05;;;;;;;6.70;3.90;;;;;;;22.15;64.97;99904.77;104263;1284;95304;-83
2022/08/21 04:33:33;;;;;;;5.90;3.80;;;;;;;22.17;64.89;99902.04;104263;1284;95127;-83
2022/08/21 04:36:02;;;;;;;7.50;4.20;;;;;;;22.15;64.80;99901.55;104277;1282;140076;-84
2022/08/21 04:38:31;;;;;;;7.20;4.20;;;;;;;22.07;65.15;99898.54;104350;1283;99918;-83
2022/08/21 04:41:06;;;;;;;8.00;4.20;;;;;;;22.10;65.42;99899.18;104204;1284;140267;-84
2022/08/21 04:43:34;;;;;;;7.10;4.20;;;;;;;22.12;65.45;99899.27;104233;1284;95344;-84
2022/08/21 04:46:02;;;;;;;6.80;4.00;;;;;;;22.13;65.05;99899.34;104180;1284;139162;-84
2022/08/21 04:48:30;;;;;;;7.70;4.00;;;;;;;22.17;65.33;99902.44;104307;1284;109844;-84
2022/08/21 04:51:13;;;;;;;8.60;4.20;;;;;;;22.15;65.24;99901.48;104307;1283;99920;-85
2022/08/21 04:53:45;;;;;;;6.10;3.70;;;;;;;22.12;65.12;99898.66;104313;1284;140252;-86
2022/08/21 04:56:20;;;;;;;7.10;3.90;;;;;;;22.09;65.07;99900.36;104216;1283;95229;-84
2022/08/21 04:58:49;;;;;;;6.40;4.00;;;;;;;22.03;65.04;99898.27;104110;1284;140029;-86
2022/08/21 05:01:21;;;;;;;6.80;4.00;;;;;;;22.02;65.31;99899.84;104283;1282;110391;-86
2022/08/21 05:03:53;;;;;;;8.70;4.00;;;;;;;22.07;65.50;99898.56;104107;1285;140937;-86
2022/08/21 05:06:21;;;;;;;6.90;4.00;;;;;;;22.16;65.33;99901.75;104084;1285;109365;-86
2022/08/21 05:08:52;;;;;;;7.50;4.10;;;;;;;22.29;65.27;99902.20;104603;1284;95243;-85
2022/08/21 05:11:31;;;;;;;7.70;3.90;;;;;;;22.43;64.83;99904.50;106237;1284;139315;-84
2022/08/21 05:13:59;;;;;;;7.20;4.10;;;;;;;22.49;64.45;99904.48;105767;1283;109459;-88
2022/08/21 05:16:27;;;;;;;8.50;4.00;;;;;;;22.48;64.14;99901.85;104260;1282;140197;-85
2022/08/21 05:19:06;;;;;;;7.20;3.90;;;;;;;22.53;64.03;99901.09;104051;1284;108307;-87
2022/08/21 05:21:35;;;;;;;6.40;4.20;;;;;;;22.53;63.87;99904.66;104020;1284;95754;-87
2022/08/21 05:24:03;;;;;;;7.70;4.60;;;;;;;22.52;63.91;99904.09;104182;1284;95759;-86
2022/08/21 05:26:31;;;;;;;8.50;4.00;;;;;;;22.46;63.70;99901.48;104234;1283;108838;-85
2022/08/21 05:28:59;;;;;;;7.30;3.90;;;;;;;22.50;64.16;99902.84;104193;1284;139835;-85
2022/08/21 05:31:26;;;;;;;7.70;4.10;;;;;;;22.63;64.11;99904.27;104202;1284;109338;-86
2022/08/21 05:33:55;;;;;;;7.10;4.00;;;;;;;22.65;63.98;99902.62;104178;1284;139062;-85
2022/08/21 05:36:23;;;;;;;7.20;4.10;;;;;;;22.65;63.76;99908.08;104290;1284;95360;-84
2022/08/21 05:38:51;;;;;;;7.10;4.10;;;;;;;22.65;63.49;99906.21;104322;1284;110223;-86
2022/08/21 05:41:19;;;;;;;6.80;4.10;;;;;;;22.65;63.45;99909.73;104256;1284;139398;-86
2022/08/21 05:43:47;;;;;;;6.10;4.10;;;;;;;22.63;64.00;99910.55;104234;1284;109553;-85
2022/08/21 05:46:15;;;;;;;8.30;4.60;;;;;;;22.56;63.91;99912.03;104111;1284;140539;-86
2022/08/21 05:48:42;;;;;;;8.60;4.20;;;;;;;22.44;63.86;99912.38;104274;1284;95864;-86
2022/08/21 05:51:13;;;;;;;7.40;4.20;;;;;;;22.32;63.97;99910.09;104372;1284;110393;-87
2022/08/21 05:53:43;;;;;;;7.10;4.10;;;;;;;22.27;64.30;99912.64;104152;1284;140301;-86
2022/08/21 05:56:12;;;;;;;8.20;4.10;;;;;;;22.25;64.55;99913.14;104126;1284;109403;-87
2022/08/21 05:58:40;;;;;;;8.00;4.00;;;;;;;22.22;64.53;99913.39;103987;1284;140582;-85
2022/08/21 06:01:08;;;;;;;7.10;4.40;;;;;;;22.17;64.80;99912.92;104136;1284;95574;-86
2022/08/21 06:03:39;;;;;;;8.00;4.00;;;;;;;22.19;64.86;99910.40;104108;1284;109651;-87
2022/08/21 06:06:07;;;;;;;8.30;4.60;;;;;;;22.26;64.90;99905.89;104175;1284;100141;-85
2022/08/21 06:08:35;;;;;;;7.90;4.40;;;;;;;22.36;64.76;99900.51;104462;1282;109847;-85
2022/08/21 06:11:04;;;;;;;8.50;4.40;;;;;;;22.50;64.36;99902.95;104387;1284;140310;-86
2022/08/21 06:13:33;;;;;;;7.30;4.30;;;;;;;22.63;64.21;99905.35;104190;1284;95835;-86
2022/08/21 06:16:06;;;;;;;7.30;4.10;;;;;;;22.80;64.12;99907.34;104103;1284;141663;-85
2022/08/21 06:18:35;;;;;;;7.60;4.50;;;;;;;22.97;63.68;99910.17;104193;1284;98758;-86
2022/08/21 06:21:04;;;;;;;7.90;4.50;;;;;;;23.09;63.45;99913.23;104251;1284;108815;-85
2022/08/21 06:23:32;;;;;;;9.00;4.80;;;;;;;23.28;63.24;99918.42;104069;1284;142448;-86
2022/08/21 06:26:02;;;;;;;8.30;4.50;;;;;;;23.38;62.97;99923.38;104220;1284;95219;-83
2022/08/21 06:28:30;;;;;;;8.10;5.00;;;;;;;23.39;62.70;99925.29;104455;1284;140076;-86
2022/08/21 06:30:58;;;;;;;7.00;4.30;;;;;;;23.42;63.36;99926.67;104205;1284;97371;-87
2022/08/21 06:33:26;;;;;;;8.40;4.90;;;;;;;23.46;62.73;99923.24;104198;1284;107793;-86
2022/08/21 06:35:59;;;;;;;7.10;4.30;;;;;;;23.56;62.75;99923.46;104151;1283;138412;-86
2022/08/21 06:38:27;;;;;;;7.90;4.50;;;;;;;23.60;62.48;99921.42;104307;1283;95665;-86
2022/08/21 06:40:56;;;;;;;8.30;4.80;;;;;;;23.56;61.51;99925.40;104102;1284;139383;-86
2022/08/21 06:43:24;;;;;;;7.20;4.50;;;;;;;23.53;62.22;99927.30;104246;1283;98898;-86
2022/08/21 06:46:08;;;;;;;7.70;5.00;;;;;;;23.55;62.57;99927.14;104058;1284;140435;-85
2022/08/21 06:48:36;;;;;;;7.40;4.70;;;;;;;23.54;62.11;99932.86;104902;1284;95345;-86
2022/08/21 06:51:04;;;;;;;7.80;4.50;;;;;;;23.50;62.19;99936.23;104546;1284;95258;-86
2022/08/21 06:53:32;;;;;;;7.00;4.20;;;;;;;23.55;62.60;99935.44;104181;1284;140286;-86
2022/08/21 06:56:04;;;;;;;6.90;4.30;;;;;;;23.72;62.53;99936.48;104273;1284;100203;-85
2022/08/21 06:58:31;;;;;;;7.10;4.50;;;;;;;23.90;62.19;99940.59;104148;1284;140059;-85
2022/08/21 07:00:59;;;;;;;6.90;4.30;;;;;;;23.89;61.01;99943.00;104146;1282;95190;-85
2022/08/21 07:03:38;;;;;;;8.00;5.40;;;;;;;23.93;61.39;99949.17;104140;1284;95205;-85
2022/08/21 07:06:08;;;;;;;8.80;4.90;;;;;;;24.01;61.05;99941.04;104230;1283;110318;-85
2022/08/21 07:08:36;;;;;;;8.20;4.80;;;;;;;24.13;60.85;99941.52;104425;1284;99908;-86
2022/08/21 07:11:12;;;;;;;7.20;5.00;;;;;;;24.21;60.83;99939.05;104003;1284;140660;-85
2022/08/21 07:13:40;;;;;;;8.70;4.90;;;;;;;24.30;60.57;99933.73;104179;1284;95157;-85
2022/08/21 07:16:08;;;;;;;10.10;4.90;;;;;;;24.41;60.65;99931.36;104061;1284;139247;-84
2022/08/21 07:18:36;;;;;;;7.40;4.70;;;;;;;24.53;60.69;99932.28;104150;1283;110930;-87
2022/08/21 07:21:07;;;;;;;8.60;4.80;;;;;;;24.66;60.25;99922.45;104165;1284;99795;-87
2022/08/21 07:23:39;;;;;;;7.80;4.40;;;;;;;24.73;60.16;99919.41;104177;1284;139611;-86
2022/08/21 07:26:09;;;;;;;8.30;4.60;;;;;;;24.82;60.19;99921.10;104198;1284;95260;-86
2022/08/21 07:28:37;;;;;;;7.80;4.40;;;;;;;24.95;59.54;99924.67;104258;1284;138182;-87
2022/08/21 07:31:05;;;;;;;7.40;4.50;;;;;;;25.00;60.30;99923.60;104197;1284;110131;-86
2022/08/21 07:33:34;;;;;;;7.40;4.20;;;;;;;25.11;60.13;99922.78;104093;1284;99898;-85
2022/08/21 07:36:03;;;;;;;7.20;4.50;;;;;;;25.24;59.31;99919.31;104161;1284;107675;-85
2022/08/21 07:38:31;;;;;;;7.60;4.50;;;;;;;25.25;58.13;99915.10;104183;1284;95243;-85
2022/08/21 07:41:01;;;;;;;7.70;5.00;;;;;;;25.20;58.27;99913.70;104046;1284;138628;-84
2022/08/21 07:43:29;;;;;;;8.10;4.70;;;;;;;25.31;58.30;99908.69;104143;1284;109727;-84
2022/08/21 07:45:57;;;;;;;7.10;4.50;;;;;;;25.40;58.78;99901.48;104007;1284;140576;-85
2022/08/21 07:48:25;;;;;;;7.30;4.30;;;;;;;25.43;58.60;99899.75;104181;1284;109660;-86
2022/08/21 07:50:53;;;;;;;7.30;3.80;;;;;;;25.42;57.29;99895.83;104048;1284;95319;-83
2022/08/21 07:53:21;;;;;;;6.70;4.40;;;;;;;25.50;57.34;99892.92;104015;1284;139864;-85
2022/08/21 07:55:49;;;;;;;7.10;4.20;;;;;;;25.61;57.42;99894.20;104198;1284;110106;-86
2022/08/21 07:58:17;;;;;;;7.20;4.30;;;;;;;25.80;57.85;99888.19;104078;1283;138887;-85
2022/08/21 08:00:45;;;;;;;7.80;4.00;;;;;;;25.90;57.07;99884.48;104124;1284;108325;-85
2022/08/21 08:03:12;;;;;;;8.10;4.30;;;;;;;25.92;56.67;99883.70;104189;1284;95497;-86
2022/08/21 08:05:47;;;;;;;6.80;4.20;;;;;;;25.96;56.19;99880.44;104041;1284;139209;-84
2022/08/21 08:08:15;;;;;;;6.60;4.20;;;;;;;26.01;56.05;99881.71;104115;1284;110166;-84
2022/08/21 08:10:43;;;;;;;6.40;4.00;;;;;;;26.04;55.19;99878.70;103927;1284;139825;-86
2022/08/21 08:13:11;;;;;;;6.90;3.90;;;;;;;26.11;55.88;99876.36;104174;1282;108935;-85
2022/08/21 08:15:39;;;;;;;6.10;4.00;;;;;;;26.15;55.03;99875.29;104018;1284;139213;-83
2022/08/21 08:18:09;;;;;;;7.30;4.30;;;;;;;26.19;55.23;99876.83;104077;1284;95570;-85
2022/08/21 08:20:37;;;;;;;8.20;4.40;;;;;;;26.32;55.46;99873.74;104241;1284;109290;-86
2022/08/21 08:23:05;;;;;;;8.40;4.60;;;;;;;26.46;54.75;99871.60;105403;1284;138908;-84
2022/08/21 08:25:33;;;;;;;6.50;3.90;;;;;;;26.56;55.00;99875.00;105307;1284;109398;-85
2022/08/21 08:28:06;;;;;;;8.20;4.00;;;;;;;26.65;54.73;99876.35;104045;1284;138559;-85
2022/08/21 08:30:45;;;;;;;5.70;3.90;;;;;;;26.79;54.40;99874.84;103954;1284;95166;-84
2022/08/21 08:33:14;;;;;;;6.90;4.30;;;;;;;26.90;53.87;99878.79;104325;1283;110052;-84
2022/08/21 08:35:45;;;;;;;6.30;3.80;;;;;;;27.03;53.59;99881.31;104594;1284;138750;-83
2022/08/21 08:38:18;;;;;;;6.30;4.00;;;;;;;27.16;53.52;99882.48;104663;1284;106740;-83
2022/08/21 08:41:10;;;;;;;7.30;3.80;;;;;;;27.27;53.46;99874.83;104211;1284;138248;-87
2022/08/21 08:43:40;;;;;;;7.30;4.20;;;;;;;27.35;52.55;99874.98;104051;1284;95297;-83
2022/08/21 08:46:16;;;;;;;6.00;4.00;;;;;;;27.49;52.28;99869.78;103926;1284;140283;-83
2022/08/21 08:48:55;;;;;;;7.70;4.00;;;;;;;27.65;51.67;99869.52;104041;1284;99620;-84
2022/08/21 08:52:06;;;;;;;6.40;4.40;;;;;;;27.78;51.77;99861.23;104028;1284;108342;-84
2022/08/21 08:54:45;;;;;;;6.20;4.00;;;;;;;27.87;50.23;99868.42;103696;1284;96435;-83
2022/08/21 08:57:18;;;;;;;6.90;3.70;;;;;;;27.91;50.80;99870.37;104028;1284;95251;-83
2022/08/21 08:59:51;;;;;;;6.90;4.00;;;;;;;27.98;50.18;99874.23;103986;1284;139807;-84
2022/08/21 09:02:27;;;;;;;6.80;4.00;;;;;;;28.13;50.09;99876.65;104034;1284;99577;-83
2022/08/21 09:04:55;;;;;;;7.20;3.80;;;;;;;28.30;49.87;99877.53;103920;1284;138105;-83
2022/08/21 09:07:33;;;;;;;7.90;4.00;;;;;;;28.44;49.61;99876.23;104118;1284;95568;-83
2022/08/21 09:10:04;;;;;;;7.90;4.50;;;;;;;28.67;49.32;99874.34;103809;1284;139854;-82
2022/08/21 09:12:37;;;;;;;7.70;4.10;;;;;;;28.89;48.43;99875.30;104078;1284;110311;-82
2022/08/21 09:15:35;;;;;;;6.30;3.50;;;;;;;28.97;47.78;99875.05;104020;1284;99932;-83
2022/08/21 09:18:35;;;;;;;7.70;4.00;;;;;;;29.12;46.63;99872.25;103966;1284;138334;-86
2022/08/21 09:21:15;;;;;;;6.10;3.60;;;;;;;29.56;45.91;99867.36;103884;1284;95308;-84
2022/08/21 09:24:10;;;;;;;7.10;3.80;;;;;;;30.65;43.94;99867.57;104172;1284;138169;-83
2022/08/21 09:27:06;;;;;;;5.60;3.30;;;;;;;31.92;42.64;99864.06;104193;1283;110550;-83
2022/08/21 09:29:39;;;;;;;6.20;3.20;;;;;;;33.20;40.17;99865.30;104137;1284;138728;-84
2022/08/21 09:32:29;;;;;;;5.30;3.20;;;;;;;33.92;39.03;99866.80;104258;1284;108954;-85
2022/08/21 09:35:11;;;;;;;6.00;3.20;;;;;;;33.14;38.47;99870.78;104001;1284;138501;-84
2022/08/21 09:37:53;;;;;;;6.30;2.80;;;;;;;32.52;39.95;99865.75;104266;1284;95538;-84
2022/08/21 09:40:42;;;;;;;6.10;2.90;;;;;;;32.07;39.86;99863.00;104393;1284;138809;-83
2022/08/21 09:43:19;;;;;;;5.70;3.20;;;;;;;31.68;40.96;99868.77;104292;1284;99934;-86
2022/08/21 09:45:48;;;;;;;6.50;3.40;;;;;;;31.92;40.52;99859.52;104422;1284;140876;-84
2022/08/21 09:48:23;;;;;;;7.80;3.30;;;;;;;31.36;40.76;99861.20;104283;1283;95533;-84
2022/08/21 09:51:09;;;;;;;5.20;3.20;;;;;;;30.73;41.80;99862.33;104196;1284;95158;-84
2022/08/21 09:53:42;;;;;;;6.40;3.30;;;;;;;30.81;42.36;99857.85;104178;1284;138865;-85
2022/08/21 09:59:31;;;;;;;6.70;3.20;;;;;;;34.14;37.63;99853.56;104108;1284;139889;-85
2022/08/21 10:02:30;;;;;;;6.90;2.80;;;;;;;35.39;35.33;99849.98;103249;1284;1223792;-84
2022/08/21 10:05:23;;;;;;;6.50;2.80;;;;;;;36.54;33.72;99848.16;103980;1282;140137;-85
2022/08/21 10:07:51;;;;;;;6.20;2.80;;;;;;;36.92;32.42;99848.02;104163;1284;110580;-83
2022/08/21 10:10:37;;;;;;;5.80;2.70;;;;;;;37.11;31.39;99850.11;104046;1284;140188;-84
2022/08/21 10:13:16;;;;;;;5.10;2.60;;;;;;;35.96;33.36;99853.27;103956;1284;108802;-84
2022/08/21 10:15:47;;;;;;;8.00;3.30;;;;;;;34.96;33.73;99850.02;103819;1284;139958;-85
2022/08/21 10:18:27;;;;;;;6.30;3.00;;;;;;;34.14;35.33;99850.64;104198;1284;95341;-84
2022/08/21 10:21:14;;;;;;;5.70;3.20;;;;;;;34.02;36.43;99849.80;104071;1284;110982;-83
2022/08/21 10:24:08;;;;;;;5.90;3.10;;;;;;;33.71;36.51;99851.73;104052;1284;139211;-81
2022/08/21 10:26:56;;;;;;;11.10;3.50;;;;;;;33.05;36.96;99851.79;103814;1284;108335;-82
2022/08/21 10:30:05;;;;;;;7.20;3.10;;;;;;;32.47;38.19;99851.87;104021;1284;138507;-82
2022/08/21 10:32:59;;;;;;;7.40;3.00;;;;;;;31.78;38.96;99850.23;103410;1288;95587;-82
2022/08/21 10:35:36;;;;;;;5.50;2.90;;;;;;;31.56;39.49;99845.61;103341;1290;138661;-83
2022/08/21 10:38:16;;;;;;;6.00;3.20;;;;;;;31.52;39.83;99845.98;103958;1284;99429;-83
2022/08/21 10:41:31;;;;;;;5.60;2.90;;;;;;;31.00;41.64;99852.64;104033;1284;138431;-83
2022/08/21 10:44:26;;;;;;;6.40;3.40;;;;;;;30.63;42.31;99852.32;104139;1284;95874;-82
2022/08/21 10:47:04;;;;;;;6.60;3.10;;;;;;;30.53;42.04;99850.70;104002;1284;139563;-81
2022/08/21 10:49:57;;;;;;;5.70;3.30;;;;;;;30.56;41.81;99847.89;104166;1284;109568;-82
2022/08/21 10:52:39;;;;;;;6.00;3.40;;;;;;;31.16;41.69;99845.19;104072;1284;138468;-82
2022/08/21 10:55:19;;;;;;;6.20;3.20;;;;;;;32.81;39.15;99846.95;104194;1284;109431;-83
2022/08/21 10:57:53;;;;;;;6.10;3.00;;;;;;;33.07;37.27;99847.85;104109;1284;140514;-83
2022/08/21 11:00:26;;;;;;;7.50;3.40;;;;;;;32.71;38.53;99841.11;104159;1283;95493;-82
2022/08/21 11:03:02;;;;;;;6.50;3.00;;;;;;;32.21;38.81;99841.00;104119;1284;108758;-83
2022/08/21 11:06:00;;;;;;;5.50;2.90;;;;;;;31.69;39.65;99843.63;104023;1284;139202;-82
2022/08/21 11:08:33;;;;;;;6.40;3.10;;;;;;;30.81;40.81;99843.52;103946;1284;109405;-84
2022/08/21 11:11:34;;;;;;;5.40;3.10;;;;;;;30.32;41.73;99841.69;104038;1281;139728;-81
2022/08/21 11:14:13;;;;;;;7.10;3.20;;;;;;;30.03;42.44;99839.23;104250;1284;95188;-82
2022/08/21 11:16:49;;;;;;;7.00;3.30;;;;;;;29.80;42.92;99840.17;104071;1283;139867;-81
2022/08/21 11:19:38;;;;;;;6.60;3.30;;;;;;;29.50;42.90;99839.16;104099;1284;99377;-82
2022/08/21 11:22:15;;;;;;;5.60;3.10;;;;;;;29.04;44.09;99841.77;103826;1284;139976;-82
2022/08/21 11:24:55;;;;;;;5.80;3.00;;;;;;;28.99;44.60;99838.99;104050;1284;95679;-82
2022/08/21 11:27:36;;;;;;;5.40;2.90;;;;;;;29.00;45.08;99837.59;104023;1284;95204;-82
2022/08/21 11:30:05;;;;;;;6.30;3.00;;;;;;;29.00;45.13;99834.95;104093;1283;110138;-83
2022/08/21 11:33:07;;;;;;;6.30;3.10;;;;;;;29.00;44.70;99834.00;104040;1283;100525;-83
2022/08/21 11:35:45;;;;;;;5.40;2.70;;;;;;;28.80;45.00;99836.00;104042;1284;139324;-83
2022/08/21 11:38:34;;;;;;;6.00;2.70;;;;;;;28.80;45.01;99832.55;104049;1283;95324;-83
2022/08/21 11:41:28;;;;;;;6.20;3.00;;;;;;;28.94;45.49;99836.34;103899;1284;138283;-84
2022/08/21 11:44:07;;;;;;;6.20;3.00;;;;;;;28.91;44.76;99836.69;103711;1285;110387;-83
2022/08/21 11:47:20;;;;;;;5.20;3.00;;;;;;;28.89;44.35;99834.52;103952;1284;139533;-83
2022/08/21 11:50:13;;;;;;;6.10;3.10;;;;;;;29.03;44.97;99828.40;103736;1283;108638;-82